sensor_id;sensor_type;location;lat;lon;timestamp;temperature;humidity
77523;SHT31;66637;-29.628;-49.938;2023-12-07T00:02:19;23.21;92.81
77523;SHT31;66637;-29.628;-49.938;2023-12-07T00:04:51;23.14;93.00
77523;SHT31;66637;-29.628;-49.938;2023-12-07T00:07:23;23.13;92.79
77523;SHT31;66637;-29.628;-49.938;2023-12-07T00:09:53;23.10;92.94
77523;SHT31;66637;-29.628;-49.938;2023-12-07T00:12:24;23.11;92.90
77523;SHT31;66637;-29.628;-49.938;2023-12-07T00:14:55;23.04;92.95
77523;SHT31;66637;-29.628;-49.938;2023-12-07T00:17:26;22.99;93.07
77523;SHT31;66637;-29.628;-49.938;2023-12-07T00:19:57;22.99;93.10
77523;SHT31;66637;-29.628;-49.938;2023-12-07T00:22:28;23.00;93.28
77523;SHT31;66637;-29.628;-49.938;2023-12-07T00:24:58;23.07;93.36
77523;SHT31;66637;-29.628;-49.938;2023-12-07T00:27:30;23.21;93.38
77523;SHT31;66637;-29.628;-49.938;2023-12-07T00:30:01;23.31;93.39
77523;SHT31;66637;-29.628;-49.938;2023-12-07T00:32:32;23.20;93.36
77523;SHT31;66637;-29.628;-49.938;2023-12-07T00:35:04;23.34;93.56
77523;SHT31;66637;-29.628;-49.938;2023-12-07T00:37:35;23.44;93.32
77523;SHT31;66637;-29.628;-49.938;2023-12-07T00:40:06;23.33;93.17
77523;SHT31;66637;-29.628;-49.938;2023-12-07T00:42:38;23.25;93.35
77523;SHT31;66637;-29.628;-49.938;2023-12-07T00:45:11;23.43;93.53
77523;SHT31;66637;-29.628;-49.938;2023-12-07T00:47:43;23.58;93.69
77523;SHT31;66637;-29.628;-49.938;2023-12-07T00:50:14;23.89;94.11
77523;SHT31;66637;-29.628;-49.938;2023-12-07T00:52:44;24.15;94.01
77523;SHT31;66637;-29.628;-49.938;2023-12-07T00:55:15;24.28;93.94
77523;SHT31;66637;-29.628;-49.938;2023-12-07T00:57:45;24.41;93.84
77523;SHT31;66637;-29.628;-49.938;2023-12-07T01:00:16;24.44;93.59
77523;SHT31;66637;-29.628;-49.938;2023-12-07T01:02:47;24.49;93.61
77523;SHT31;66637;-29.628;-49.938;2023-12-07T01:05:17;24.53;93.47
77523;SHT31;66637;-29.628;-49.938;2023-12-07T01:07:47;24.56;93.45
77523;SHT31;66637;-29.628;-49.938;2023-12-07T01:10:18;24.59;93.37
77523;SHT31;66637;-29.628;-49.938;2023-12-07T01:12:49;24.59;93.35
77523;SHT31;66637;-29.628;-49.938;2023-12-07T01:15:19;24.57;93.26
77523;SHT31;66637;-29.628;-49.938;2023-12-07T01:17:49;24.61;93.33
77523;SHT31;66637;-29.628;-49.938;2023-12-07T01:20:32;24.60;93.33
77523;SHT31;66637;-29.628;-49.938;2023-12-07T01:23:03;24.56;93.20
77523;SHT31;66637;-29.628;-49.938;2023-12-07T01:25:34;24.59;93.25
77523;SHT31;66637;-29.628;-49.938;2023-12-07T01:28:06;24.59;93.24
77523;SHT31;66637;-29.628;-49.938;2023-12-07T01:30:36;24.57;93.22
77523;SHT31;66637;-29.628;-49.938;2023-12-07T01:33:06;24.53;93.04
77523;SHT31;66637;-29.628;-49.938;2023-12-07T01:35:37;24.37;92.99
77523;SHT31;66637;-29.628;-49.938;2023-12-07T01:38:08;24.20;92.88
77523;SHT31;66637;-29.628;-49.938;2023-12-07T01:40:40;24.12;93.03
77523;SHT31;66637;-29.628;-49.938;2023-12-07T01:43:14;24.09;92.94
77523;SHT31;66637;-29.628;-49.938;2023-12-07T01:45:47;23.95;92.82
77523;SHT31;66637;-29.628;-49.938;2023-12-07T01:48:17;24.05;93.34
77523;SHT31;66637;-29.628;-49.938;2023-12-07T01:50:49;24.30;93.60
77523;SHT31;66637;-29.628;-49.938;2023-12-07T01:53:23;24.47;93.48
77523;SHT31;66637;-29.628;-49.938;2023-12-07T01:55:54;24.52;93.36
77523;SHT31;66637;-29.628;-49.938;2023-12-07T01:58:25;24.55;93.24
77523;SHT31;66637;-29.628;-49.938;2023-12-07T02:00:55;24.56;93.25
77523;SHT31;66637;-29.628;-49.938;2023-12-07T02:03:26;24.63;93.22
77523;SHT31;66637;-29.628;-49.938;2023-12-07T02:09:19;24.61;93.16
77523;SHT31;66637;-29.628;-49.938;2023-12-07T02:11:49;24.64;93.06
77523;SHT31;66637;-29.628;-49.938;2023-12-07T02:14:21;24.63;93.01
77523;SHT31;66637;-29.628;-49.938;2023-12-07T02:17:01;24.70;93.05
77523;SHT31;66637;-29.628;-49.938;2023-12-07T02:22:30;24.30;91.92
77523;SHT31;66637;-29.628;-49.938;2023-12-07T02:25:07;24.05;92.03
77523;SHT31;66637;-29.628;-49.938;2023-12-07T02:27:46;23.95;92.30
77523;SHT31;66637;-29.628;-49.938;2023-12-07T02:30:17;23.92;92.42
77523;SHT31;66637;-29.628;-49.938;2023-12-07T02:35:47;23.72;92.08
77523;SHT31;66637;-29.628;-49.938;2023-12-07T02:38:20;23.84;92.42
77523;SHT31;66637;-29.628;-49.938;2023-12-07T02:40:55;23.85;92.25
77523;SHT31;66637;-29.628;-49.938;2023-12-07T02:43:43;23.75;92.13
77523;SHT31;66637;-29.628;-49.938;2023-12-07T02:46:14;23.54;91.94
77523;SHT31;66637;-29.628;-49.938;2023-12-07T02:48:45;23.44;92.07
77523;SHT31;66637;-29.628;-49.938;2023-12-07T02:51:17;23.34;91.84
77523;SHT31;66637;-29.628;-49.938;2023-12-07T02:53:47;23.30;92.20
77523;SHT31;66637;-29.628;-49.938;2023-12-07T02:56:18;23.41;92.32
77523;SHT31;66637;-29.628;-49.938;2023-12-07T02:58:49;23.41;92.37
77523;SHT31;66637;-29.628;-49.938;2023-12-07T03:01:20;23.43;92.47
77523;SHT31;66637;-29.628;-49.938;2023-12-07T03:03:50;23.47;92.47
77523;SHT31;66637;-29.628;-49.938;2023-12-07T03:06:23;23.38;92.48
77523;SHT31;66637;-29.628;-49.938;2023-12-07T03:08:56;23.34;92.37
77523;SHT31;66637;-29.628;-49.938;2023-12-07T03:11:27;23.34;92.50
77523;SHT31;66637;-29.628;-49.938;2023-12-07T03:13:57;23.35;92.55
77523;SHT31;66637;-29.628;-49.938;2023-12-07T03:16:30;23.37;92.59
77523;SHT31;66637;-29.628;-49.938;2023-12-07T03:19:01;23.38;92.73
77523;SHT31;66637;-29.628;-49.938;2023-12-07T03:21:32;23.37;92.70
77523;SHT31;66637;-29.628;-49.938;2023-12-07T03:24:06;23.33;92.88
77523;SHT31;66637;-29.628;-49.938;2023-12-07T03:26:38;23.37;92.93
77523;SHT31;66637;-29.628;-49.938;2023-12-07T03:29:09;23.35;92.79
77523;SHT31;66637;-29.628;-49.938;2023-12-07T03:31:40;23.40;92.80
77523;SHT31;66637;-29.628;-49.938;2023-12-07T03:34:11;23.47;92.85
77523;SHT31;66637;-29.628;-49.938;2023-12-07T03:36:46;23.54;93.04
77523;SHT31;66637;-29.628;-49.938;2023-12-07T03:39:18;23.61;92.89
77523;SHT31;66637;-29.628;-49.938;2023-12-07T03:41:49;23.64;92.98
77523;SHT31;66637;-29.628;-49.938;2023-12-07T03:44:19;23.65;92.81
77523;SHT31;66637;-29.628;-49.938;2023-12-07T03:46:51;23.71;92.94
77523;SHT31;66637;-29.628;-49.938;2023-12-07T03:49:22;23.71;92.68
77523;SHT31;66637;-29.628;-49.938;2023-12-07T03:51:52;23.64;92.60
77523;SHT31;66637;-29.628;-49.938;2023-12-07T03:54:23;23.65;92.50
77523;SHT31;66637;-29.628;-49.938;2023-12-07T03:56:53;23.61;92.58
77523;SHT31;66637;-29.628;-49.938;2023-12-07T03:59:25;23.48;92.08
77523;SHT31;66637;-29.628;-49.938;2023-12-07T04:01:58;23.50;92.35
77523;SHT31;66637;-29.628;-49.938;2023-12-07T04:04:28;23.62;92.62
77523;SHT31;66637;-29.628;-49.938;2023-12-07T04:06:59;23.69;92.69
77523;SHT31;66637;-29.628;-49.938;2023-12-07T04:09:29;23.71;92.76
77523;SHT31;66637;-29.628;-49.938;2023-12-07T04:12:02;23.69;92.56
77523;SHT31;66637;-29.628;-49.938;2023-12-07T04:14:32;23.74;92.66
77523;SHT31;66637;-29.628;-49.938;2023-12-07T04:17:02;23.79;92.53
77523;SHT31;66637;-29.628;-49.938;2023-12-07T04:19:33;23.84;92.64
77523;SHT31;66637;-29.628;-49.938;2023-12-07T04:22:05;23.86;92.43
77523;SHT31;66637;-29.628;-49.938;2023-12-07T04:24:39;23.90;92.59
77523;SHT31;66637;-29.628;-49.938;2023-12-07T04:27:10;23.96;92.58
77523;SHT31;66637;-29.628;-49.938;2023-12-07T04:29:42;24.04;92.56
77523;SHT31;66637;-29.628;-49.938;2023-12-07T04:32:13;24.02;92.64
77523;SHT31;66637;-29.628;-49.938;2023-12-07T04:35:00;24.13;92.75
77523;SHT31;66637;-29.628;-49.938;2023-12-07T04:37:31;24.13;92.85
77523;SHT31;66637;-29.628;-49.938;2023-12-07T04:40:01;24.09;92.91
77523;SHT31;66637;-29.628;-49.938;2023-12-07T04:42:35;24.05;92.75
77523;SHT31;66637;-29.628;-49.938;2023-12-07T04:45:07;24.04;92.85
77523;SHT31;66637;-29.628;-49.938;2023-12-07T04:47:39;23.74;92.26
77523;SHT31;66637;-29.628;-49.938;2023-12-07T04:50:10;23.59;92.32
77523;SHT31;66637;-29.628;-49.938;2023-12-07T04:52:41;23.47;92.33
77523;SHT31;66637;-29.628;-49.938;2023-12-07T04:55:13;23.48;92.47
77523;SHT31;66637;-29.628;-49.938;2023-12-07T04:57:45;23.59;92.92
77523;SHT31;66637;-29.628;-49.938;2023-12-07T05:00:17;23.68;92.88
77523;SHT31;66637;-29.628;-49.938;2023-12-07T05:02:51;23.78;93.30
77523;SHT31;66637;-29.628;-49.938;2023-12-07T05:05:21;23.94;93.17
77523;SHT31;66637;-29.628;-49.938;2023-12-07T05:07:55;23.96;93.24
77523;SHT31;66637;-29.628;-49.938;2023-12-07T05:10:26;23.96;93.09
77523;SHT31;66637;-29.628;-49.938;2023-12-07T05:12:58;24.05;92.89
77523;SHT31;66637;-29.628;-49.938;2023-12-07T05:15:29;24.08;92.84
77523;SHT31;66637;-29.628;-49.938;2023-12-07T05:18:00;24.15;92.98
77523;SHT31;66637;-29.628;-49.938;2023-12-07T05:20:46;24.23;92.94
77523;SHT31;66637;-29.628;-49.938;2023-12-07T05:23:17;24.19;92.74
77523;SHT31;66637;-29.628;-49.938;2023-12-07T05:25:48;24.20;92.56
77523;SHT31;66637;-29.628;-49.938;2023-12-07T05:28:24;24.28;92.71
77523;SHT31;66637;-29.628;-49.938;2023-12-07T05:30:55;24.25;92.53
77523;SHT31;66637;-29.628;-49.938;2023-12-07T05:33:27;24.23;92.45
77523;SHT31;66637;-29.628;-49.938;2023-12-07T05:39:03;24.23;92.43
77523;SHT31;66637;-29.628;-49.938;2023-12-07T05:41:36;24.20;92.23
77523;SHT31;66637;-29.628;-49.938;2023-12-07T05:44:07;24.16;92.14
77523;SHT31;66637;-29.628;-49.938;2023-12-07T05:46:39;24.15;92.08
77523;SHT31;66637;-29.628;-49.938;2023-12-07T05:49:15;24.19;91.89
77523;SHT31;66637;-29.628;-49.938;2023-12-07T05:51:46;24.28;91.66
77523;SHT31;66637;-29.628;-49.938;2023-12-07T05:54:18;24.37;91.25
77523;SHT31;66637;-29.628;-49.938;2023-12-07T05:56:52;24.44;90.74
77523;SHT31;66637;-29.628;-49.938;2023-12-07T05:59:22;23.86;89.49
77523;SHT31;66637;-29.628;-49.938;2023-12-07T06:01:53;23.18;90.80
77523;SHT31;66637;-29.628;-49.938;2023-12-07T06:04:25;23.11;91.94
77523;SHT31;66637;-29.628;-49.938;2023-12-07T06:06:56;23.27;92.19
77523;SHT31;66637;-29.628;-49.938;2023-12-07T06:09:28;23.34;92.29
77523;SHT31;66637;-29.628;-49.938;2023-12-07T06:12:00;23.44;92.34
77523;SHT31;66637;-29.628;-49.938;2023-12-07T06:14:31;23.33;91.54
77523;SHT31;66637;-29.628;-49.938;2023-12-07T06:17:01;23.13;91.42
77523;SHT31;66637;-29.628;-49.938;2023-12-07T06:19:34;23.08;91.49
77523;SHT31;66637;-29.628;-49.938;2023-12-07T06:22:04;23.11;91.97
77523;SHT31;66637;-29.628;-49.938;2023-12-07T06:24:36;23.35;92.36
77523;SHT31;66637;-29.628;-49.938;2023-12-07T06:27:09;23.53;92.29
77523;SHT31;66637;-29.628;-49.938;2023-12-07T06:29:50;23.54;91.51
77523;SHT31;66637;-29.628;-49.938;2023-12-07T06:32:21;23.50;91.55
77523;SHT31;66637;-29.628;-49.938;2023-12-07T06:34:51;23.43;91.48
77523;SHT31;66637;-29.628;-49.938;2023-12-07T06:37:22;23.20;90.97
77523;SHT31;66637;-29.628;-49.938;2023-12-07T06:39:53;23.13;90.94
77523;SHT31;66637;-29.628;-49.938;2023-12-07T06:42:23;23.25;91.62
77523;SHT31;66637;-29.628;-49.938;2023-12-07T06:44:55;23.41;91.60
77523;SHT31;66637;-29.628;-49.938;2023-12-07T06:47:26;23.28;91.19
77523;SHT31;66637;-29.628;-49.938;2023-12-07T06:49:58;23.38;91.91
77523;SHT31;66637;-29.628;-49.938;2023-12-07T06:52:31;23.67;91.72
77523;SHT31;66637;-29.628;-49.938;2023-12-07T06:55:03;23.75;91.53
77523;SHT31;66637;-29.628;-49.938;2023-12-07T06:57:34;23.68;91.15
77523;SHT31;66637;-29.628;-49.938;2023-12-07T07:00:06;23.55;90.97
77523;SHT31;66637;-29.628;-49.938;2023-12-07T07:02:40;23.74;91.14
77523;SHT31;66637;-29.628;-49.938;2023-12-07T07:08:34;23.27;90.82
77523;SHT31;66637;-29.628;-49.938;2023-12-07T07:11:13;23.20;90.90
77523;SHT31;66637;-29.628;-49.938;2023-12-07T07:13:46;23.30;91.10
77523;SHT31;66637;-29.628;-49.938;2023-12-07T07:16:17;23.40;91.38
77523;SHT31;66637;-29.628;-49.938;2023-12-07T07:18:50;23.55;91.30
77523;SHT31;66637;-29.628;-49.938;2023-12-07T07:21:20;23.54;90.74
77523;SHT31;66637;-29.628;-49.938;2023-12-07T07:23:52;23.47;90.50
77523;SHT31;66637;-29.628;-49.938;2023-12-07T07:26:23;23.59;90.76
77523;SHT31;66637;-29.628;-49.938;2023-12-07T07:28:55;23.75;90.39
77523;SHT31;66637;-29.628;-49.938;2023-12-07T07:31:27;23.78;90.33
77523;SHT31;66637;-29.628;-49.938;2023-12-07T07:34:00;23.90;90.07
77523;SHT31;66637;-29.628;-49.938;2023-12-07T07:36:31;23.99;89.79
77523;SHT31;66637;-29.628;-49.938;2023-12-07T07:39:02;23.99;89.84
77523;SHT31;66637;-29.628;-49.938;2023-12-07T07:41:38;24.13;89.17
77523;SHT31;66637;-29.628;-49.938;2023-12-07T07:44:08;24.09;89.39
77523;SHT31;66637;-29.628;-49.938;2023-12-07T07:46:42;24.06;89.33
77523;SHT31;66637;-29.628;-49.938;2023-12-07T07:49:14;24.12;89.26
77523;SHT31;66637;-29.628;-49.938;2023-12-07T07:51:48;24.09;89.44
77523;SHT31;66637;-29.628;-49.938;2023-12-07T07:54:22;23.74;88.67
77523;SHT31;66637;-29.628;-49.938;2023-12-07T07:56:52;23.40;89.33
77523;SHT31;66637;-29.628;-49.938;2023-12-07T07:59:24;23.54;89.92
77523;SHT31;66637;-29.628;-49.938;2023-12-07T08:01:55;23.74;90.21
77523;SHT31;66637;-29.628;-49.938;2023-12-07T08:08:44;23.85;90.27
77523;SHT31;66637;-29.628;-49.938;2023-12-07T08:11:15;23.86;90.34
77523;SHT31;66637;-29.628;-49.938;2023-12-07T08:13:45;23.85;90.34
77523;SHT31;66637;-29.628;-49.938;2023-12-07T08:16:21;23.84;90.45
77523;SHT31;66637;-29.628;-49.938;2023-12-07T08:18:53;23.89;90.44
77523;SHT31;66637;-29.628;-49.938;2023-12-07T08:21:25;23.89;90.23
77523;SHT31;66637;-29.628;-49.938;2023-12-07T08:23:58;23.90;90.11
77523;SHT31;66637;-29.628;-49.938;2023-12-07T08:26:28;23.98;89.72
77523;SHT31;66637;-29.628;-49.938;2023-12-07T08:28:59;24.05;89.70
77523;SHT31;66637;-29.628;-49.938;2023-12-07T08:31:31;24.09;89.25
77523;SHT31;66637;-29.628;-49.938;2023-12-07T08:34:03;23.59;89.16
77523;SHT31;66637;-29.628;-49.938;2023-12-07T08:36:33;23.57;90.41
77523;SHT31;66637;-29.628;-49.938;2023-12-07T08:39:04;23.40;90.80
77523;SHT31;66637;-29.628;-49.938;2023-12-07T08:41:44;23.51;90.89
77523;SHT31;66637;-29.628;-49.938;2023-12-07T08:44:15;23.65;90.83
77523;SHT31;66637;-29.628;-49.938;2023-12-07T08:46:47;23.78;90.62
77523;SHT31;66637;-29.628;-49.938;2023-12-07T08:49:20;23.89;90.48
77523;SHT31;66637;-29.628;-49.938;2023-12-07T08:51:52;24.01;90.28
77523;SHT31;66637;-29.628;-49.938;2023-12-07T08:54:48;24.16;89.93
77523;SHT31;66637;-29.628;-49.938;2023-12-07T08:57:25;24.25;89.98
77523;SHT31;66637;-29.628;-49.938;2023-12-07T09:00:01;24.40;89.78
77523;SHT31;66637;-29.628;-49.938;2023-12-07T09:02:31;24.44;89.63
77523;SHT31;66637;-29.628;-49.938;2023-12-07T09:05:18;24.18;88.89
77523;SHT31;66637;-29.628;-49.938;2023-12-07T09:07:51;23.95;89.03
77523;SHT31;66637;-29.628;-49.938;2023-12-07T09:10:24;24.12;89.84
77523;SHT31;66637;-29.628;-49.938;2023-12-07T09:12:59;24.41;89.84
77523;SHT31;66637;-29.628;-49.938;2023-12-07T09:15:34;24.33;89.42
77523;SHT31;66637;-29.628;-49.938;2023-12-07T09:18:07;24.41;89.80
77523;SHT31;66637;-29.628;-49.938;2023-12-07T09:20:44;24.49;89.88
77523;SHT31;66637;-29.628;-49.938;2023-12-07T09:23:19;24.63;89.84
77523;SHT31;66637;-29.628;-49.938;2023-12-07T09:25:53;24.80;89.65
77523;SHT31;66637;-29.628;-49.938;2023-12-07T09:28:37;24.56;88.88
77523;SHT31;66637;-29.628;-49.938;2023-12-07T09:31:10;24.57;88.68
77523;SHT31;66637;-29.628;-49.938;2023-12-07T09:33:48;24.46;89.37
77523;SHT31;66637;-29.628;-49.938;2023-12-07T09:36:46;24.80;89.66
77523;SHT31;66637;-29.628;-49.938;2023-12-07T09:39:17;25.01;89.48
77523;SHT31;66637;-29.628;-49.938;2023-12-07T09:41:47;25.17;89.16
77523;SHT31;66637;-29.628;-49.938;2023-12-07T09:44:31;25.38;88.85
77523;SHT31;66637;-29.628;-49.938;2023-12-07T09:47:02;25.61;88.51
77523;SHT31;66637;-29.628;-49.938;2023-12-07T09:49:35;26.24;87.42
77523;SHT31;66637;-29.628;-49.938;2023-12-07T09:52:10;26.37;86.86
77523;SHT31;66637;-29.628;-49.938;2023-12-07T09:54:42;26.41;84.64
77523;SHT31;66637;-29.628;-49.938;2023-12-07T09:57:15;25.38;84.37
77523;SHT31;66637;-29.628;-49.938;2023-12-07T09:59:47;25.28;85.27
77523;SHT31;66637;-29.628;-49.938;2023-12-07T10:02:25;25.52;84.81
77523;SHT31;66637;-29.628;-49.938;2023-12-07T10:05:10;25.48;85.33
77523;SHT31;66637;-29.628;-49.938;2023-12-07T10:07:48;25.45;85.22
77523;SHT31;66637;-29.628;-49.938;2023-12-07T10:10:19;25.69;84.41
77523;SHT31;66637;-29.628;-49.938;2023-12-07T10:12:55;25.88;83.62
77523;SHT31;66637;-29.628;-49.938;2023-12-07T10:15:26;25.93;82.96
77523;SHT31;66637;-29.628;-49.938;2023-12-07T10:17:59;26.34;83.64
77523;SHT31;66637;-29.628;-49.938;2023-12-07T10:20:29;26.63;82.19
77523;SHT31;66637;-29.628;-49.938;2023-12-07T10:23:21;27.48;81.54
77523;SHT31;66637;-29.628;-49.938;2023-12-07T10:25:59;28.24;78.30
77523;SHT31;66637;-29.628;-49.938;2023-12-07T10:28:34;28.10;78.59
77523;SHT31;66637;-29.628;-49.938;2023-12-07T10:31:11;27.11;79.54
77523;SHT31;66637;-29.628;-49.938;2023-12-07T10:33:49;26.67;81.56
77523;SHT31;66637;-29.628;-49.938;2023-12-07T10:36:22;26.46;82.10
77523;SHT31;66637;-29.628;-49.938;2023-12-07T10:38:54;26.77;82.20
77523;SHT31;66637;-29.628;-49.938;2023-12-07T10:41:25;27.79;80.68
77523;SHT31;66637;-29.628;-49.938;2023-12-07T10:44:04;27.76;80.30
77523;SHT31;66637;-29.628;-49.938;2023-12-07T10:46:37;27.56;80.70
77523;SHT31;66637;-29.628;-49.938;2023-12-07T10:49:17;28.47;79.22
77523;SHT31;66637;-29.628;-49.938;2023-12-07T10:52:07;28.57;77.29
77523;SHT31;66637;-29.628;-49.938;2023-12-07T10:54:54;28.68;78.42
77523;SHT31;66637;-29.628;-49.938;2023-12-07T10:57:29;28.99;77.00
77523;SHT31;66637;-29.628;-49.938;2023-12-07T11:00:01;28.76;76.53
77523;SHT31;66637;-29.628;-49.938;2023-12-07T11:02:33;27.35;79.67
77523;SHT31;66637;-29.628;-49.938;2023-12-07T11:05:09;27.53;79.72
77523;SHT31;66637;-29.628;-49.938;2023-12-07T11:08:02;27.27;80.34
77523;SHT31;66637;-29.628;-49.938;2023-12-07T11:11:00;27.04;81.91
77523;SHT31;66637;-29.628;-49.938;2023-12-07T11:13:36;26.99;80.78
77523;SHT31;66637;-29.628;-49.938;2023-12-07T11:16:09;26.30;81.05
77523;SHT31;66637;-29.628;-49.938;2023-12-07T11:18:39;25.85;83.34
77523;SHT31;66637;-29.628;-49.938;2023-12-07T11:21:11;25.69;84.54
77523;SHT31;66637;-29.628;-49.938;2023-12-07T11:23:42;25.59;85.14
77523;SHT31;66637;-29.628;-49.938;2023-12-07T11:26:14;25.86;85.86
77523;SHT31;66637;-29.628;-49.938;2023-12-07T11:28:46;26.00;85.45
77523;SHT31;66637;-29.628;-49.938;2023-12-07T11:31:20;26.26;85.03
77523;SHT31;66637;-29.628;-49.938;2023-12-07T11:33:51;26.03;84.54
77523;SHT31;66637;-29.628;-49.938;2023-12-07T11:36:24;25.88;85.51
77523;SHT31;66637;-29.628;-49.938;2023-12-07T11:41:54;26.39;84.32
77523;SHT31;66637;-29.628;-49.938;2023-12-07T11:44:34;27.02;83.14
77523;SHT31;66637;-29.628;-49.938;2023-12-07T11:47:08;26.47;84.43
77523;SHT31;66637;-29.628;-49.938;2023-12-07T11:50:03;26.05;85.22
77523;SHT31;66637;-29.628;-49.938;2023-12-07T11:52:36;25.68;85.90
77523;SHT31;66637;-29.628;-49.938;2023-12-07T11:55:08;25.32;86.27
77523;SHT31;66637;-29.628;-49.938;2023-12-07T11:57:39;25.89;84.97
77523;SHT31;66637;-29.628;-49.938;2023-12-07T12:00:12;26.60;85.20
77523;SHT31;66637;-29.628;-49.938;2023-12-07T12:02:47;26.87;81.99
77523;SHT31;66637;-29.628;-49.938;2023-12-07T12:05:17;26.84;83.36
77523;SHT31;66637;-29.628;-49.938;2023-12-07T12:07:49;26.41;84.25
77523;SHT31;66637;-29.628;-49.938;2023-12-07T12:10:20;26.14;85.26
77523;SHT31;66637;-29.628;-49.938;2023-12-07T12:13:06;26.53;84.03
77523;SHT31;66637;-29.628;-49.938;2023-12-07T12:15:53;26.37;85.22
77523;SHT31;66637;-29.628;-49.938;2023-12-07T12:18:32;26.34;84.42
77523;SHT31;66637;-29.628;-49.938;2023-12-07T12:21:06;26.40;84.37
77523;SHT31;66637;-29.628;-49.938;2023-12-07T12:23:38;26.14;86.32
77523;SHT31;66637;-29.628;-49.938;2023-12-07T12:26:10;25.89;86.71
77523;SHT31;66637;-29.628;-49.938;2023-12-07T12:28:41;25.86;87.22
77523;SHT31;66637;-29.628;-49.938;2023-12-07T12:31:13;25.83;87.05
77523;SHT31;66637;-29.628;-49.938;2023-12-07T12:33:48;25.76;86.26
77523;SHT31;66637;-29.628;-49.938;2023-12-07T12:36:27;25.65;87.15
77523;SHT31;66637;-29.628;-49.938;2023-12-07T12:39:02;25.18;86.88
77523;SHT31;66637;-29.628;-49.938;2023-12-07T12:41:56;25.01;87.22
77523;SHT31;66637;-29.628;-49.938;2023-12-07T12:44:31;24.95;87.50
77523;SHT31;66637;-29.628;-49.938;2023-12-07T12:47:06;24.86;87.89
77523;SHT31;66637;-29.628;-49.938;2023-12-07T12:49:42;24.74;87.91
77523;SHT31;66637;-29.628;-49.938;2023-12-07T12:52:33;24.88;88.40
77523;SHT31;66637;-29.628;-49.938;2023-12-07T12:55:12;25.34;87.74
77523;SHT31;66637;-29.628;-49.938;2023-12-07T12:57:44;25.31;87.13
77523;SHT31;66637;-29.628;-49.938;2023-12-07T13:00:16;25.45;87.44
77523;SHT31;66637;-29.628;-49.938;2023-12-07T13:02:47;25.38;86.56
77523;SHT31;66637;-29.628;-49.938;2023-12-07T13:05:20;25.18;87.83
77523;SHT31;66637;-29.628;-49.938;2023-12-07T13:07:51;25.37;87.03
77523;SHT31;66637;-29.628;-49.938;2023-12-07T13:10:41;25.51;86.83
77523;SHT31;66637;-29.628;-49.938;2023-12-07T13:13:12;25.53;86.43
77523;SHT31;66637;-29.628;-49.938;2023-12-07T13:15:44;25.46;86.20
77523;SHT31;66637;-29.628;-49.938;2023-12-07T13:18:15;25.30;86.60
77523;SHT31;66637;-29.628;-49.938;2023-12-07T13:20:49;25.21;86.80
77523;SHT31;66637;-29.628;-49.938;2023-12-07T13:23:23;25.07;87.21
77523;SHT31;66637;-29.628;-49.938;2023-12-07T13:25:56;24.98;87.22
77523;SHT31;66637;-29.628;-49.938;2023-12-07T13:28:27;24.83;86.63
77523;SHT31;66637;-29.628;-49.938;2023-12-07T13:30:59;24.97;86.63
77523;SHT31;66637;-29.628;-49.938;2023-12-07T13:33:30;25.06;86.79
77523;SHT31;66637;-29.628;-49.938;2023-12-07T13:36:17;25.18;85.36
77523;SHT31;66637;-29.628;-49.938;2023-12-07T13:38:48;25.34;86.41
77523;SHT31;66637;-29.628;-49.938;2023-12-07T13:41:19;25.57;85.38
77523;SHT31;66637;-29.628;-49.938;2023-12-07T13:43:50;25.92;85.73
77523;SHT31;66637;-29.628;-49.938;2023-12-07T13:46:22;26.17;84.21
77523;SHT31;66637;-29.628;-49.938;2023-12-07T13:48:54;25.79;85.71
77523;SHT31;66637;-29.628;-49.938;2023-12-07T13:51:25;25.41;86.01
77523;SHT31;66637;-29.628;-49.938;2023-12-07T13:53:56;24.91;87.50
77523;SHT31;66637;-29.628;-49.938;2023-12-07T13:56:29;24.61;88.30
77523;SHT31;66637;-29.628;-49.938;2023-12-07T13:59:00;24.37;88.58
77523;SHT31;66637;-29.628;-49.938;2023-12-07T14:01:34;24.18;89.01
77523;SHT31;66637;-29.628;-49.938;2023-12-07T14:04:07;24.15;89.27
77523;SHT31;66637;-29.628;-49.938;2023-12-07T14:06:45;24.01;89.49
77523;SHT31;66637;-29.628;-49.938;2023-12-07T14:09:18;23.98;89.51
77523;SHT31;66637;-29.628;-49.938;2023-12-07T14:11:50;24.06;89.40
77523;SHT31;66637;-29.628;-49.938;2023-12-07T14:14:21;24.15;89.41
77523;SHT31;66637;-29.628;-49.938;2023-12-07T14:16:52;24.10;89.76
77523;SHT31;66637;-29.628;-49.938;2023-12-07T14:19:41;24.06;89.67
77523;SHT31;66637;-29.628;-49.938;2023-12-07T14:22:15;24.01;89.57
77523;SHT31;66637;-29.628;-49.938;2023-12-07T14:24:48;23.85;90.04
77523;SHT31;66637;-29.628;-49.938;2023-12-07T14:27:19;23.72;90.11
77523;SHT31;66637;-29.628;-49.938;2023-12-07T14:29:52;23.86;90.19
77523;SHT31;66637;-29.628;-49.938;2023-12-07T14:32:23;23.96;89.84
77523;SHT31;66637;-29.628;-49.938;2023-12-07T14:34:55;24.15;89.42
77523;SHT31;66637;-29.628;-49.938;2023-12-07T14:37:27;24.39;88.79
77523;SHT31;66637;-29.628;-49.938;2023-12-07T14:40:00;24.44;88.00
77523;SHT31;66637;-29.628;-49.938;2023-12-07T14:42:35;24.60;87.91
77523;SHT31;66637;-29.628;-49.938;2023-12-07T14:45:06;25.00;87.70
77523;SHT31;66637;-29.628;-49.938;2023-12-07T14:47:40;25.35;86.85
77523;SHT31;66637;-29.628;-49.938;2023-12-07T14:50:15;25.51;86.21
77523;SHT31;66637;-29.628;-49.938;2023-12-07T14:52:46;25.53;86.29
77523;SHT31;66637;-29.628;-49.938;2023-12-07T14:55:18;25.28;85.94
77523;SHT31;66637;-29.628;-49.938;2023-12-07T14:57:48;25.17;87.09
77523;SHT31;66637;-29.628;-49.938;2023-12-07T15:00:21;24.84;87.42
77523;SHT31;66637;-29.628;-49.938;2023-12-07T15:02:54;24.67;88.48
77523;SHT31;66637;-29.628;-49.938;2023-12-07T15:05:26;24.41;88.57
77523;SHT31;66637;-29.628;-49.938;2023-12-07T15:07:56;24.29;89.09
77523;SHT31;66637;-29.628;-49.938;2023-12-07T15:10:27;24.18;89.14
77523;SHT31;66637;-29.628;-49.938;2023-12-07T15:12:57;24.10;89.63
77523;SHT31;66637;-29.628;-49.938;2023-12-07T15:15:28;24.05;89.60
77523;SHT31;66637;-29.628;-49.938;2023-12-07T15:18:00;23.99;89.41
77523;SHT31;66637;-29.628;-49.938;2023-12-07T15:20:32;24.26;90.42
77523;SHT31;66637;-29.628;-49.938;2023-12-07T15:23:04;24.37;89.20
77523;SHT31;66637;-29.628;-49.938;2023-12-07T15:25:35;24.47;89.58
77523;SHT31;66637;-29.628;-49.938;2023-12-07T15:28:06;24.77;89.80
77523;SHT31;66637;-29.628;-49.938;2023-12-07T15:30:40;24.61;88.73
77523;SHT31;66637;-29.628;-49.938;2023-12-07T15:33:12;24.56;88.80
77523;SHT31;66637;-29.628;-49.938;2023-12-07T15:35:44;24.60;89.98
77523;SHT31;66637;-29.628;-49.938;2023-12-07T15:38:14;24.97;89.63
77523;SHT31;66637;-29.628;-49.938;2023-12-07T15:40:44;25.21;88.90
77523;SHT31;66637;-29.628;-49.938;2023-12-07T15:43:15;25.58;88.22
77523;SHT31;66637;-29.628;-49.938;2023-12-07T15:45:58;25.63;87.77
77523;SHT31;66637;-29.628;-49.938;2023-12-07T15:48:30;26.00;87.89